Time;durP1;ratioP1;P1;durP2;ratioP2;P2;SDS_P1;SDS_P2;PMS_P1;PMS_P2;Temp;Humidity;BMP_temperature;BMP_pressure;BME280_temperature;BME280_humidity;BME280_pressure;Samples;Min_cycle;Max_cycle;Signal;HPM_P1;HPM_P2
2021/05/28 00:00:24;;;;;;;4.85;2.05;;;12.50;99.90;;;;;;5018821;28;20182;-79
2021/05/28 00:02:50;;;;;;;4.80;2.33;;;12.40;99.90;;;;;;5019199;28;20254;-79
2021/05/28 00:05:16;;;;;;;5.63;2.43;;;12.40;99.90;;;;;;5015160;28;20565;-79
2021/05/28 00:07:42;;;;;;;4.30;2.67;;;12.40;99.90;;;;;;5014472;28;20197;-79
2021/05/28 00:10:09;;;;;;;5.97;2.55;;;12.40;99.90;;;;;;5015143;28;20635;-80
2021/05/28 00:12:34;;;;;;;3.97;2.10;;;12.40;99.90;;;;;;4990213;28;20178;-79
2021/05/28 00:15:00;;;;;;;8.20;3.63;;;12.40;99.90;;;;;;5031626;28;20173;-79
2021/05/28 00:17:26;;;;;;;4.18;2.45;;;12.40;99.90;;;;;;5026160;28;20754;-79
2021/05/28 00:19:52;;;;;;;6.40;2.47;;;12.40;99.90;;;;;;5014118;28;20213;-79
2021/05/28 00:22:17;;;;;;;5.80;2.20;;;12.40;99.90;;;;;;5031717;28;20174;-79
2021/05/28 00:24:43;;;;;;;4.33;3.07;;;12.40;99.90;;;;;;5029611;28;20581;-79
2021/05/28 00:27:09;;;;;;;5.17;1.97;;;12.40;99.90;;;;;;5026248;28;20197;-79
2021/05/28 00:29:34;;;;;;;5.47;2.70;;;12.40;99.90;;;;;;5013867;28;20626;-79
2021/05/28 00:32:02;;;;;;;4.17;3.23;;;12.50;99.90;;;;;;5031577;28;20169;-79
2021/05/28 00:34:28;;;;;;;2.25;1.88;;;12.50;99.90;;;;;;5031797;28;20227;-79
2021/05/28 00:36:54;;;;;;;4.23;2.30;;;12.40;99.90;;;;;;5031168;28;20272;-79
2021/05/28 00:39:20;;;;;;;6.70;3.65;;;12.50;99.90;;;;;;5014009;28;20586;-79
2021/05/28 00:41:45;;;;;;;5.20;2.73;;;12.50;99.90;;;;;;5017301;28;20244;-79
2021/05/28 00:44:11;;;;;;;6.83;2.93;;;12.50;99.90;;;;;;5014966;28;20185;-79
2021/05/28 00:46:38;;;;;;;6.10;3.28;;;12.50;99.90;;;;;;5014104;28;20220;-79
2021/05/28 00:49:04;;;;;;;3.65;2.63;;;12.50;99.90;;;;;;5032170;23;20677;-76
2021/05/28 00:51:29;;;;;;;2.97;2.40;;;12.50;99.90;;;;;;5023022;28;20180;-76
2021/05/28 00:53:56;;;;;;;8.53;3.70;;;12.60;99.90;;;;;;5026917;28;20180;-76
2021/05/28 00:56:25;;;;;;;6.63;3.45;;;12.60;99.90;;;;;;5039983;28;20260;-76
2021/05/28 00:59:01;;;;;;;3.40;3.08;;;12.60;99.90;;;;;;5013133;28;20608;-77
2021/05/28 01:01:27;;;;;;;5.75;2.72;;;12.70;99.90;;;;;;5023414;28;20710;-76
2021/05/28 01:03:53;;;;;;;4.27;2.77;;;12.70;99.90;;;;;;5031254;28;20429;-76
2021/05/28 01:06:19;;;;;;;4.60;2.80;;;12.80;99.90;;;;;;5013420;28;20576;-76
2021/05/28 01:08:45;;;;;;;7.10;3.00;;;12.80;99.90;;;;;;5013484;28;20606;-76
2021/05/28 01:11:11;;;;;;;5.93;3.30;;;12.80;99.90;;;;;;5031502;28;20565;-76
2021/05/28 01:13:37;;;;;;;4.70;3.17;;;12.80;99.90;;;;;;5017088;28;20629;-76
2021/05/28 01:16:03;;;;;;;5.30;2.50;;;12.90;99.90;;;;;;5035332;28;20173;-76
2021/05/28 01:18:29;;;;;;;7.03;3.00;;;12.90;99.90;;;;;;5034737;28;20193;-76
2021/05/28 01:20:54;;;;;;;4.30;3.27;;;12.90;99.90;;;;;;5035213;28;20192;-76
2021/05/28 01:23:20;;;;;;;6.17;3.00;;;12.90;99.90;;;;;;5034945;28;20207;-76
2021/05/28 01:25:46;;;;;;;6.65;3.38;;;12.90;99.90;;;;;;5035148;28;20256;-76
2021/05/28 01:28:12;;;;;;;6.00;2.40;;;12.90;99.90;;;;;;5016963;28;20297;-76
2021/05/28 01:30:38;;;;;;;5.67;3.23;;;12.90;99.90;;;;;;5034982;28;20166;-76
2021/05/28 01:33:04;;;;;;;5.53;3.37;;;12.90;99.90;;;;;;5035034;28;20205;-76
2021/05/28 01:35:30;;;;;;;6.28;2.60;;;12.90;99.90;;;;;;5017281;28;20985;-76
2021/05/28 01:37:55;;;;;;;3.83;3.03;;;12.90;99.90;;;;;;5016781;28;20197;-76
2021/05/28 01:40:23;;;;;;;4.43;3.00;;;12.90;99.90;;;;;;5017334;28;20538;-76
2021/05/28 01:42:49;;;;;;;6.45;3.65;;;12.90;99.90;;;;;;5034711;28;20249;-77
2021/05/28 01:45:17;;;;;;;5.43;3.20;;;12.90;99.90;;;;;;5017038;28;20162;-77
2021/05/28 01:47:43;;;;;;;6.70;3.20;;;12.90;99.90;;;;;;5034099;28;20228;-77
2021/05/28 01:50:10;;;;;;;4.87;3.57;;;12.90;99.90;;;;;;5016752;28;20162;-77
2021/05/28 01:52:35;;;;;;;5.57;3.05;;;12.90;99.90;;;;;;5016943;28;20584;-77
2021/05/28 01:55:03;;;;;;;9.80;3.03;;;12.90;99.90;;;;;;5034634;28;20176;-76
2021/05/28 01:57:28;;;;;;;5.15;3.60;;;12.80;99.90;;;;;;5034125;28;20689;-76
2021/05/28 01:59:54;;;;;;;5.00;2.93;;;12.80;99.90;;;;;;5034612;28;20197;-76
2021/05/28 02:02:20;;;;;;;7.97;3.07;;;12.70;99.90;;;;;;5016668;28;20212;-76
2021/05/28 02:04:46;;;;;;;5.37;3.17;;;12.70;99.90;;;;;;5034226;28;20280;-76
2021/05/28 02:07:12;;;;;;;4.70;3.70;;;12.60;99.90;;;;;;5016304;28;20564;-76
2021/05/28 02:09:37;;;;;;;6.80;3.30;;;12.50;99.90;;;;;;5034128;28;20192;-76
2021/05/28 02:12:03;;;;;;;5.50;3.40;;;12.40;99.90;;;;;;5016446;28;20252;-75
2021/05/28 02:14:30;;;;;;;6.78;3.63;;;12.40;99.90;;;;;;5016940;28;20634;-76
2021/05/28 02:16:56;;;;;;;7.40;3.90;;;12.30;99.90;;;;;;5033666;28;20177;-76
2021/05/28 02:19:22;;;;;;;3.92;3.30;;;12.20;99.90;;;;;;5033971;28;20599;-75
2021/05/28 02:21:49;;;;;;;4.93;3.67;;;12.10;99.90;;;;;;5033959;28;20178;-75
2021/05/28 02:24:15;;;;;;;5.45;3.83;;;12.00;99.90;;;;;;5032727;28;20197;-75
2021/05/28 02:26:45;;;;;;;6.10;3.20;;;12.00;99.90;;;;;;5033658;28;20174;-76
2021/05/28 02:29:12;;;;;;;7.57;4.05;;;11.90;99.90;;;;;;5016101;28;20204;-75
2021/05/28 02:31:39;;;;;;;6.97;3.83;;;11.80;99.90;;;;;;5016153;28;20635;-76
2021/05/28 02:34:05;;;;;;;6.43;3.78;;;11.80;99.90;;;;;;5015991;28;20280;-76
2021/05/28 02:36:31;;;;;;;5.53;4.00;;;11.70;99.90;;;;;;5033422;28;20201;-76
2021/05/28 02:38:57;;;;;;;5.10;4.10;;;11.60;99.90;;;;;;5033553;28;20604;-76
2021/05/28 02:41:23;;;;;;;6.40;4.10;;;11.60;99.90;;;;;;5016043;28;20181;-76
2021/05/28 02:43:49;;;;;;;4.17;3.77;;;11.50;99.90;;;;;;5015937;28;20675;-76
2021/05/28 02:46:15;;;;;;;5.82;4.10;;;11.40;99.90;;;;;;5015954;28;20533;-76
2021/05/28 02:48:41;;;;;;;5.10;3.97;;;11.40;99.90;;;;;;5033150;28;20197;-76
2021/05/28 02:51:07;;;;;;;3.43;3.13;;;11.30;99.90;;;;;;5033662;28;20639;-75
2021/05/28 02:53:35;;;;;;;4.47;3.70;;;11.20;99.90;;;;;;5015778;28;20172;-75
2021/05/28 02:56:05;;;;;;;4.65;3.70;;;11.20;99.90;;;;;;5015766;28;20173;-75
2021/05/28 02:58:31;;;;;;;6.63;4.82;;;11.10;99.90;;;;;;5033117;28;20847;-76
2021/05/28 03:00:57;;;;;;;7.35;4.05;;;11.10;99.90;;;;;;5033166;28;20188;-75
2021/05/28 03:03:23;;;;;;;7.35;4.85;;;11.00;99.90;;;;;;5032054;28;20280;-76
2021/05/28 03:05:50;;;;;;;5.60;3.78;;;11.00;99.90;;;;;;5033239;28;20162;-76
2021/05/28 03:08:20;;;;;;;5.78;4.60;;;10.90;99.90;;;;;;5015064;28;20178;-76
2021/05/28 03:10:46;;;;;;;6.10;4.80;;;10.90;99.90;;;;;;5015414;28;20505;-76
2021/05/28 03:13:15;;;;;;;5.40;3.97;;;10.80;99.90;;;;;;5033021;28;20162;-77
2021/05/28 03:15:41;;;;;;;5.30;4.10;;;10.80;99.90;;;;;;5031743;28;20581;-77
2021/05/28 03:18:23;;;;;;;7.28;4.22;;;10.80;99.90;;;;;;5032394;28;20190;-77
2021/05/28 03:21:18;;;;;;;4.70;4.05;;;10.70;99.90;;;;;;5033000;28;20174;-78
2021/05/28 03:23:43;;;;;;;7.10;4.13;;;10.70;99.90;;;;;;5015177;28;20634;-77
2021/05/28 03:26:09;;;;;;;5.17;4.67;;;10.70;99.90;;;;;;4998507;28;20197;-77
2021/05/28 03:28:35;;;;;;;5.43;4.63;;;10.70;99.90;;;;;;5032507;28;20190;-78
2021/05/28 03:31:01;;;;;;;7.87;5.80;;;10.70;99.90;;;;;;5032578;28;20595;-78
2021/05/28 03:33:27;;;;;;;6.23;4.03;;;10.70;99.90;;;;;;5032878;28;20535;-77
2021/05/28 03:35:52;;;;;;;7.83;4.97;;;10.70;99.90;;;;;;5014724;28;20580;-77
2021/05/28 03:38:19;;;;;;;6.07;5.47;;;10.70;99.90;;;;;;5014376;28;20181;-77
2021/05/28 03:40:45;;;;;;;6.03;4.60;;;10.70;99.90;;;;;;5032475;28;20641;-78
2021/05/28 03:43:10;;;;;;;6.53;5.20;;;10.70;99.90;;;;;;5032452;28;20221;-78
2021/05/28 03:45:52;;;;;;;8.40;4.93;;;10.70;99.90;;;;;;5036983;28;20631;-77
2021/05/28 03:48:18;;;;;;;7.00;4.75;;;10.70;99.90;;;;;;5018176;28;20197;-78
2021/05/28 03:50:44;;;;;;;6.00;4.17;;;10.70;99.90;;;;;;5014700;28;20166;-78
2021/05/28 03:53:10;;;;;;;8.43;4.93;;;10.70;99.90;;;;;;5032394;28;20956;-77
2021/05/28 03:55:36;;;;;;;5.17;4.47;;;10.60;99.90;;;;;;5014585;28;20581;-77
2021/05/28 03:58:02;;;;;;;6.03;5.40;;;10.60;99.90;;;;;;5029896;28;20627;-77
2021/05/28 04:00:27;;;;;;;5.95;5.35;;;10.70;99.90;;;;;;4993006;28;20181;-78
2021/05/28 04:02:54;;;;;;;7.23;5.20;;;10.70;99.90;;;;;;4998226;28;20174;-78
2021/05/28 04:05:19;;;;;;;5.20;4.40;;;10.80;99.90;;;;;;5030944;28;20170;-78
2021/05/28 04:07:45;;;;;;;6.97;4.97;;;10.90;99.90;;;;;;4987154;28;20191;-78
2021/05/28 04:10:12;;;;;;;8.87;5.87;;;10.90;99.90;;;;;;4993029;28;20617;-77
2021/05/28 04:12:38;;;;;;;7.38;5.40;;;11.00;99.90;;;;;;4976249;28;20973;-77
2021/05/28 04:15:06;;;;;;;8.43;6.20;;;11.00;99.90;;;;;;4994375;28;20261;-77
2021/05/28 04:17:31;;;;;;;9.02;5.68;;;11.10;99.90;;;;;;4995729;28;20186;-77
2021/05/28 04:19:57;;;;;;;7.13;5.30;;;11.10;99.90;;;;;;4975910;28;20181;-77
2021/05/28 04:22:23;;;;;;;7.37;5.97;;;11.20;99.90;;;;;;4982349;28;20586;-77
2021/05/28 04:24:49;;;;;;;12.73;7.13;;;11.20;99.90;;;;;;5008566;28;20622;-78
2021/05/28 04:27:14;;;;;;;8.53;6.70;;;11.30;99.90;;;;;;4988689;28;20613;-77
2021/05/28 04:29:40;;;;;;;6.13;5.53;;;11.30;99.90;;;;;;4997554;28;20171;-78
2021/05/28 04:32:06;;;;;;;6.50;5.77;;;11.40;99.90;;;;;;4982057;28;20175;-77
2021/05/28 04:34:34;;;;;;;7.83;6.80;;;11.50;99.90;;;;;;5009903;28;20175;-78
2021/05/28 04:36:59;;;;;;;7.18;6.30;;;11.50;99.90;;;;;;5012884;28;20217;-78
2021/05/28 04:39:26;;;;;;;6.88;5.45;;;11.60;99.90;;;;;;4995141;28;20183;-77
2021/05/28 04:41:54;;;;;;;7.60;6.93;;;11.60;99.90;;;;;;4975755;28;20207;-77
2021/05/28 04:44:19;;;;;;;8.55;7.72;;;11.70;99.90;;;;;;4975320;28;20203;-77
2021/05/28 04:46:45;;;;;;;7.57;6.80;;;11.90;99.90;;;;;;4992132;28;20191;-77
2021/05/28 04:49:11;;;;;;;9.07;7.70;;;12.10;99.90;;;;;;4993124;28;20205;-77
2021/05/28 04:51:37;;;;;;;10.03;7.47;;;12.40;99.90;;;;;;4991874;28;20175;-78
2021/05/28 04:54:03;;;;;;;8.97;7.23;;;12.70;99.90;;;;;;4993044;28;20577;-78
2021/05/28 04:56:29;;;;;;;9.80;7.82;;;13.00;99.90;;;;;;4992226;28;20174;-77
2021/05/28 04:58:54;;;;;;;9.83;7.73;;;13.20;99.90;;;;;;4992281;28;20190;-77
2021/05/28 05:01:20;;;;;;;10.63;8.70;;;13.40;99.90;;;;;;4992386;28;20175;-78
2021/05/28 05:03:46;;;;;;;8.20;7.40;;;13.50;99.90;;;;;;4992283;28;20210;-78
2021/05/28 05:06:12;;;;;;;10.30;7.63;;;13.80;99.90;;;;;;4992162;28;20190;-78
2021/05/28 05:08:37;;;;;;;7.65;6.95;;;14.00;99.90;;;;;;4974710;28;20218;-78
2021/05/28 05:11:03;;;;;;;9.00;8.10;;;14.10;99.90;;;;;;4992394;28;20171;-77
2021/05/28 05:13:29;;;;;;;10.00;7.20;;;14.30;99.90;;;;;;4992389;28;20185;-77
2021/05/28 05:15:55;;;;;;;11.00;7.03;;;14.50;99.90;;;;;;4992269;28;20579;-78
2021/05/28 05:18:20;;;;;;;8.93;6.90;;;14.70;99.90;;;;;;4974289;28;20533;-77
2021/05/28 05:20:46;;;;;;;8.97;6.80;;;14.90;99.90;;;;;;4991952;28;20174;-77
2021/05/28 05:23:12;;;;;;;15.17;13.60;;;15.10;99.90;;;;;;4991976;28;20222;-78
2021/05/28 05:25:38;;;;;;;9.60;8.70;;;15.30;99.90;;;;;;4992037;28;20167;-78
2021/05/28 05:28:04;;;;;;;8.80;7.40;;;15.40;99.90;;;;;;4991531;28;20335;-78
2021/05/28 05:30:30;;;;;;;9.33;6.70;;;15.60;99.90;;;;;;4994644;28;20250;-78
2021/05/28 05:32:55;;;;;;;8.00;7.30;;;15.90;99.90;;;;;;5008484;28;20677;-78
2021/05/28 05:35:21;;;;;;;10.70;8.07;;;16.20;99.90;;;;;;4993738;28;20177;-78
2021/05/28 05:37:47;;;;;;;11.93;8.20;;;16.40;99.90;;;;;;5011009;28;20178;-78
2021/05/28 05:40:13;;;;;;;9.90;8.90;;;16.60;99.90;;;;;;5011307;28;20166;-78
2021/05/28 05:42:40;;;;;;;6.90;6.17;;;16.70;99.90;;;;;;4991908;28;20170;-78
2021/05/28 05:45:08;;;;;;;7.67;6.97;;;16.90;99.90;;;;;;4997359;28;20619;-78
2021/05/28 05:47:34;;;;;;;7.43;6.70;;;17.30;99.90;;;;;;5018682;28;20620;-78
2021/05/28 05:49:59;;;;;;;7.87;6.70;;;17.70;99.90;;;;;;5012985;28;20659;-78
2021/05/28 05:52:26;;;;;;;9.23;7.47;;;18.40;99.90;;;;;;5017964;28;20265;-79
2021/05/28 05:54:51;;;;;;;9.23;8.00;;;19.30;99.90;;;;;;5011140;28;20174;-79
2021/05/28 05:57:17;;;;;;;7.90;6.90;;;20.10;99.90;;;;;;5010538;28;20577;-81
2021/05/28 05:59:43;;;;;;;10.83;7.23;;;21.00;99.90;;;;;;5011268;28;20204;-80
2021/05/28 06:02:09;;;;;;;9.30;6.83;;;22.00;99.90;;;;;;4994985;28;20171;-80
2021/05/28 06:04:35;;;;;;;7.40;6.70;;;22.80;99.90;;;;;;4995495;28;20962;-81
2021/05/28 06:07:01;;;;;;;8.00;6.27;;;23.70;99.90;;;;;;4994447;28;20202;-78
2021/05/28 06:09:26;;;;;;;7.50;6.70;;;24.50;99.90;;;;;;4994918;28;20178;-79
2021/05/28 06:11:54;;;;;;;8.40;7.60;;;24.90;99.90;;;;;;5005983;28;20662;-76
2021/05/28 06:14:20;;;;;;;8.30;7.50;;;25.10;99.90;;;;;;5014596;28;20171;-79
2021/05/28 06:16:45;;;;;;;7.80;6.80;;;25.50;99.90;;;;;;4996158;28;20562;-78
2021/05/28 06:19:11;;;;;;;9.50;8.53;;;26.10;99.90;;;;;;5013049;28;20190;-78
2021/05/28 06:21:37;;;;;;;8.17;6.90;;;26.50;99.90;;;;;;4996342;28;20170;-78
2021/05/28 06:24:03;;;;;;;7.43;6.83;;;27.00;99.90;;;;;;5014201;28;20198;-78
2021/05/28 06:26:29;;;;;;;7.70;6.90;;;27.50;99.90;;;;;;4996146;28;20167;-77
2021/05/28 06:28:54;;;;;;;7.20;6.50;;;28.00;99.90;;;;;;5014013;28;20604;-78
2021/05/28 06:31:20;;;;;;;6.67;6.10;;;28.50;99.90;;;;;;4996541;28;20181;-78
2021/05/28 06:33:46;;;;;;;6.93;6.30;;;29.10;99.90;;;;;;5013874;28;20206;-80
2021/05/28 06:36:12;;;;;;;6.60;5.90;;;29.60;99.90;;;;;;4996521;28;20662;-79
2021/05/28 06:38:38;;;;;;;5.50;5.00;;;30.20;99.90;;;;;;5013598;28;21019;-79
2021/05/28 06:41:03;;;;;;;7.43;6.57;;;30.70;99.90;;;;;;4996466;28;20274;-80
2021/05/28 06:43:29;;;;;;;7.50;6.20;;;31.00;99.90;;;;;;5013980;28;20191;-80
2021/05/28 06:45:55;;;;;;;5.67;5.10;;;31.40;99.90;;;;;;5013946;28;20168;-80
2021/05/28 06:48:21;;;;;;;5.90;5.00;;;31.80;99.20;;;;;;5013602;28;21045;-80
2021/05/28 06:50:46;;;;;;;5.90;5.07;;;32.20;98.10;;;;;;4996226;28;20181;-80
2021/05/28 06:53:12;;;;;;;5.80;5.20;;;32.70;96.50;;;;;;5013808;28;20243;-79
2021/05/28 06:55:39;;;;;;;7.70;5.90;;;33.10;95.40;;;;;;5013502;28;20175;-80
2021/05/28 06:58:06;;;;;;;6.47;5.90;;;33.00;93.40;;;;;;4995585;28;20196;-80
2021/05/28 07:00:31;;;;;;;5.20;4.60;;;33.10;92.20;;;;;;4995973;28;21199;-80
2021/05/28 07:02:57;;;;;;;5.57;4.87;;;33.20;90.90;;;;;;4995734;28;20577;-80
2021/05/28 07:05:24;;;;;;;4.70;4.20;;;33.40;90.60;;;;;;5013341;28;20578;-81
2021/05/28 07:07:54;;;;;;;5.10;4.70;;;33.80;90.00;;;;;;4995114;28;20192;-80
2021/05/28 07:10:20;;;;;;;4.90;4.50;;;34.20;85.50;;;;;;5012915;28;20577;-80
2021/05/28 07:12:46;;;;;;;4.97;4.37;;;34.60;85.10;;;;;;5013176;28;20588;-79
2021/05/28 07:15:13;;;;;;;4.60;4.20;;;34.90;82.80;;;;;;4995567;28;20597;-80
2021/05/28 07:17:38;;;;;;;5.80;4.83;;;35.20;79.30;;;;;;5012606;28;20550;-79
2021/05/28 07:20:05;;;;;;;8.60;5.30;;;35.40;77.90;;;;;;5013125;28;20569;-79
2021/05/28 07:22:31;;;;;;;5.07;4.57;;;35.50;75.00;;;;;;5013031;28;20172;-79
2021/05/28 07:24:58;;;;;;;11.57;10.60;;;35.60;72.40;;;;;;5012896;28;20620;-80
2021/05/28 07:27:24;;;;;;;6.33;5.73;;;35.80;71.10;;;;;;5012542;28;20182;-79
2021/05/28 07:29:50;;;;;;;5.07;4.63;;;36.00;69.90;;;;;;5012863;28;20601;-80
2021/05/28 07:32:16;;;;;;;6.33;4.80;;;36.20;68.90;;;;;;4995275;28;20585;-80
2021/05/28 07:34:42;;;;;;;4.40;4.00;;;36.40;67.60;;;;;;4995192;28;20573;-79
2021/05/28 07:37:07;;;;;;;4.07;3.67;;;36.60;65.90;;;;;;5012414;28;20581;-79
2021/05/28 07:39:33;;;;;;;4.67;4.23;;;36.80;64.10;;;;;;5013477;28;20173;-79
2021/05/28 07:42:01;;;;;;;3.77;3.40;;;36.90;62.60;;;;;;4995156;28;20677;-79
2021/05/28 07:44:27;;;;;;;5.30;3.90;;;37.10;61.10;;;;;;5012715;28;20194;-80
2021/05/28 07:46:53;;;;;;;5.77;4.40;;;37.20;60.30;;;;;;5012187;28;20672;-79
2021/05/28 07:49:20;;;;;;;4.67;4.17;;;37.30;59.10;;;;;;5012386;28;20601;-80
2021/05/28 07:51:45;;;;;;;6.13;4.70;;;37.30;58.20;;;;;;4978662;28;20615;-80
2021/05/28 07:54:11;;;;;;;4.17;3.73;;;37.50;57.30;;;;;;4994879;28;20561;-79
2021/05/28 07:56:38;;;;;;;4.63;3.80;;;37.50;56.70;;;;;;5012131;28;20573;-80
2021/05/28 07:59:04;;;;;;;4.50;3.60;;;37.50;55.90;;;;;;5020417;28;20206;-80
2021/05/28 08:01:31;;;;;;;5.40;3.57;;;37.60;55.70;;;;;;5030107;28;20957;-80
2021/05/28 08:03:57;;;;;;;4.60;3.47;;;37.80;55.00;;;;;;5026356;28;20637;-80
2021/05/28 08:06:26;;;;;;;5.40;3.63;;;37.90;54.50;;;;;;5020310;28;20589;-80
2021/05/28 08:08:52;;;;;;;3.57;2.93;;;38.10;53.80;;;;;;5031906;28;20628;-80
2021/05/28 08:11:18;;;;;;;4.00;3.10;;;38.20;53.60;;;;;;5030835;28;20990;-79
2021/05/28 08:13:44;;;;;;;3.70;3.00;;;38.40;52.90;;;;;;5023391;28;20572;-80
2021/05/28 08:16:10;;;;;;;4.23;3.40;;;38.50;51.00;;;;;;5007967;28;20588;-79
2021/05/28 08:18:36;;;;;;;4.13;3.67;;;38.50;50.40;;;;;;5010983;28;20624;-80
2021/05/28 08:21:04;;;;;;;6.93;3.97;;;38.40;49.90;;;;;;4991580;28;20525;-79
2021/05/28 08:23:30;;;;;;;5.10;4.33;;;38.40;48.70;;;;;;5004200;28;20629;-80
2021/05/28 08:25:56;;;;;;;4.90;4.40;;;38.40;49.40;;;;;;5026961;28;20574;-79
2021/05/28 08:28:22;;;;;;;4.57;2.90;;;38.50;48.80;;;;;;5004939;28;20192;-80
2021/05/28 08:30:48;;;;;;;4.93;3.30;;;38.60;48.10;;;;;;5027377;28;20684;-79
2021/05/28 08:33:15;;;;;;;3.70;2.57;;;38.60;47.60;;;;;;5027307;28;20256;-80
2021/05/28 08:35:42;;;;;;;3.60;3.00;;;38.50;46.20;;;;;;5030321;28;20592;-80
2021/05/28 08:38:08;;;;;;;3.20;2.90;;;37.90;45.00;;;;;;5024858;28;20715;-79
2021/05/28 08:40:34;;;;;;;3.77;2.60;;;36.80;44.60;;;;;;5023411;28;21032;-80
2021/05/28 08:43:05;;;;;;;5.20;2.53;;;35.80;44.30;;;;;;5027938;28;20640;-79
2021/05/28 08:45:43;;;;;;;5.33;3.43;;;34.70;44.20;;;;;;5004993;28;20701;-79
2021/05/28 08:48:12;;;;;;;3.57;3.00;;;33.60;44.30;;;;;;5030415;28;20665;-79
2021/05/28 08:50:40;;;;;;;3.40;3.00;;;32.40;44.60;;;;;;5025487;28;20593;-80
2021/05/28 08:53:09;;;;;;;3.40;2.50;;;31.40;45.10;;;;;;5007074;28;20651;-79
2021/05/28 08:55:36;;;;;;;2.50;2.30;;;30.60;45.90;;;;;;5012134;28;21509;-79
2021/05/28 08:58:09;;;;;;;3.97;2.93;;;29.90;46.80;;;;;;5030905;28;21455;-79
2021/05/28 09:00:37;;;;;;;4.50;2.73;;;29.70;47.60;;;;;;5031242;28;20936;-79
2021/05/28 09:03:24;;;;;;;3.57;2.97;;;29.40;47.30;;;;;;5031248;28;20568;-80
2021/05/28 09:05:50;;;;;;;3.50;2.77;;;29.00;47.80;;;;;;5031326;28;20593;-80
2021/05/28 09:08:34;;;;;;;5.20;3.30;;;28.50;48.00;;;;;;5013309;28;20605;-79
2021/05/28 09:11:07;;;;;;;5.43;3.53;;;28.20;48.70;;;;;;5031223;28;20568;-80
2021/05/28 09:13:33;;;;;;;4.37;3.03;;;27.90;49.00;;;;;;5013688;28;20683;-80
2021/05/28 09:16:10;;;;;;;4.17;3.10;;;27.70;49.80;;;;;;5013652;28;20638;-79
2021/05/28 09:18:55;;;;;;;4.07;2.93;;;27.50;49.70;;;;;;5031305;28;20600;-79
2021/05/28 09:21:24;;;;;;;2.57;2.30;;;27.40;50.30;;;;;;4997540;28;20581;-79
2021/05/28 09:23:51;;;;;;;4.47;3.30;;;27.80;51.30;;;;;;5013471;28;20667;-80
2021/05/28 09:26:17;;;;;;;3.80;2.60;;;28.20;51.50;;;;;;5013314;28;20565;-80
2021/05/28 09:28:46;;;;;;;2.97;2.20;;;28.30;50.70;;;;;;5030837;28;21045;-80
2021/05/28 09:31:20;;;;;;;2.70;2.40;;;28.20;50.40;;;;;;5013386;28;20573;-79
2021/05/28 09:33:49;;;;;;;2.97;2.30;;;28.10;49.80;;;;;;5033464;28;20646;-79
2021/05/28 09:36:18;;;;;;;3.00;2.17;;;27.80;49.60;;;;;;5034817;28;20571;-79
2021/05/28 09:39:14;;;;;;;4.80;2.70;;;27.60;50.40;;;;;;5034729;28;20607;-79
2021/05/28 09:41:57;;;;;;;4.60;3.10;;;27.30;49.90;;;;;;5034893;28;20634;-79
2021/05/28 09:44:28;;;;;;;4.60;2.97;;;27.40;50.80;;;;;;5000902;28;20623;-80
2021/05/28 09:47:11;;;;;;;3.33;2.80;;;27.40;50.90;;;;;;5034387;28;20565;-79
2021/05/28 09:50:05;;;;;;;2.80;2.60;;;27.20;50.60;;;;;;5028346;28;20868;-82
2021/05/28 09:54:07;;;;;;;6.73;4.30;;;27.10;51.10;;;;;;5005078;28;20584;-81
2021/05/28 09:57:10;;;;;;;3.90;3.50;;;27.00;51.20;;;;;;5001772;28;20583;-82
2021/05/28 10:00:46;;;;;;;9.23;2.43;;;27.20;52.00;;;;;;5026480;28;20591;-81
2021/05/28 10:03:23;;;;;;;3.23;2.03;;;27.10;49.40;;;;;;4962577;28;21072;-80
2021/05/28 10:05:53;;;;;;;3.00;1.73;;;26.70;50.50;;;;;;5014900;28;20660;-80
2021/05/28 10:08:20;;;;;;;3.60;2.30;;;26.10;50.40;;;;;;5028755;28;20822;-80
2021/05/28 10:10:47;;;;;;;2.43;2.03;;;26.00;51.60;;;;;;5025753;28;20560;-80
2021/05/28 10:13:15;;;;;;;3.20;1.80;;;26.20;52.20;;;;;;5041346;28;20563;-81
2021/05/28 10:15:44;;;;;;;2.20;1.97;;;26.40;52.50;;;;;;5003207;28;20967;-80
2021/05/28 10:18:11;;;;;;;2.10;1.70;;;26.70;52.70;;;;;;5039788;28;20640;-80
2021/05/28 10:20:38;;;;;;;3.30;1.80;;;26.80;52.40;;;;;;5047266;28;20588;-80
2021/05/28 10:23:06;;;;;;;2.73;1.70;;;26.90;52.10;;;;;;5024363;28;20572;-80
2021/05/28 10:25:32;;;;;;;2.70;1.77;;;26.90;51.70;;;;;;5006889;28;21174;-81
2021/05/28 10:28:01;;;;;;;3.10;1.40;;;27.10;52.20;;;;;;5037170;28;20646;-81
2021/05/28 10:30:38;;;;;;;2.23;1.50;;;27.50;52.70;;;;;;5036287;28;20587;-81
2021/05/28 10:33:24;;;;;;;1.93;1.50;;;28.20;53.00;;;;;;5000312;28;20560;-81
2021/05/28 10:35:52;;;;;;;1.73;1.20;;;28.70;52.40;;;;;;5001670;28;20596;-81
2021/05/28 10:38:30;;;;;;;1.70;1.40;;;28.80;51.90;;;;;;5015169;28;20699;-81
2021/05/28 10:41:17;;;;;;;3.70;2.10;;;28.80;50.50;;;;;;4989953;28;20998;-81
2021/05/28 10:43:50;;;;;;;3.03;2.47;;;28.60;50.40;;;;;;5011945;28;20666;-81
2021/05/28 10:46:17;;;;;;;2.63;1.90;;;28.80;50.40;;;;;;5019127;28;20581;-81
2021/05/28 10:48:43;;;;;;;2.10;1.50;;;28.80;50.30;;;;;;5038137;28;20732;-75
2021/05/28 10:51:14;;;;;;;3.00;2.03;;;28.50;49.20;;;;;;5033555;28;20668;-75
2021/05/28 10:53:41;;;;;;;4.43;1.80;;;28.20;49.80;;;;;;5015638;28;20461;-75
2021/05/28 10:56:09;;;;;;;4.93;2.00;;;28.00;50.00;;;;;;5033570;28;20565;-75
2021/05/28 10:58:54;;;;;;;2.07;1.43;;;27.80;50.20;;;;;;5015435;28;20609;-75
2021/05/28 11:01:35;;;;;;;2.17;1.70;;;27.60;49.90;;;;;;5015346;28;20569;-75
2021/05/28 11:04:24;;;;;;;2.70;1.30;;;27.40;49.90;;;;;;5015665;28;20979;-75
2021/05/28 11:07:00;;;;;;;2.63;1.63;;;27.10;50.30;;;;;;5024970;28;20990;-76
2021/05/28 11:09:50;;;;;;;1.57;0.83;;;26.90;49.60;;;;;;5033139;28;20568;-76
2021/05/28 11:12:17;;;;;;;2.10;0.90;;;26.80;50.60;;;;;;4999081;28;20584;-76
2021/05/28 11:15:05;;;;;;;2.60;1.50;;;26.80;50.90;;;;;;5015460;28;20579;-75
2021/05/28 11:17:31;;;;;;;1.90;1.30;;;26.70;51.00;;;;;;5014944;28;20604;-75
2021/05/28 11:20:03;;;;;;;2.07;1.43;;;26.90;51.70;;;;;;5033342;28;20638;-76
2021/05/28 11:22:39;;;;;;;1.60;0.93;;;27.20;51.70;;;;;;5033091;28;20174;-76
2021/05/28 11:25:20;;;;;;;1.57;0.80;;;27.30;51.20;;;;;;5033288;28;20623;-76
2021/05/28 11:27:54;;;;;;;1.80;0.97;;;27.60;51.80;;;;;;4998801;28;20611;-76
2021/05/28 11:30:45;;;;;;;2.60;0.90;;;28.10;51.50;;;;;;5016857;28;20558;-76
2021/05/28 11:33:38;;;;;;;1.43;0.90;;;28.40;51.30;;;;;;5018541;28;20994;-75
2021/05/28 11:36:38;;;;;;;1.60;0.90;;;28.50;49.50;;;;;;4981336;28;20637;-76
2021/05/28 11:39:18;;;;;;;5.20;1.73;;;28.60;49.30;;;;;;5020918;28;20595;-76
2021/05/28 11:42:02;;;;;;;1.83;0.90;;;28.50;49.50;;;;;;5031398;28;20563;-75
2021/05/28 11:44:31;;;;;;;1.60;0.83;;;28.40;48.80;;;;;;5031143;28;20571;-76
2021/05/28 11:46:58;;;;;;;1.60;0.93;;;28.10;48.20;;;;;;5039117;28;20573;-75
2021/05/28 11:49:24;;;;;;;1.93;1.33;;;27.80;48.40;;;;;;5018582;28;20689;-76
2021/05/28 11:52:17;;;;;;;4.90;1.27;;;27.70;49.00;;;;;;5034637;28;20600;-76
2021/05/28 11:54:43;;;;;;;1.40;0.80;;;27.50;48.70;;;;;;5030113;28;20691;-76
2021/05/28 11:57:13;;;;;;;2.90;0.87;;;27.50;49.20;;;;;;5032355;28;20568;-75
2021/05/28 11:59:51;;;;;;;2.40;0.93;;;27.50;49.90;;;;;;5032290;28;20166;-75
2021/05/28 12:02:48;;;;;;;1.47;0.80;;;27.40;47.80;;;;;;5015750;28;20572;-75
2021/05/28 12:05:31;;;;;;;1.70;1.10;;;27.10;48.20;;;;;;5015497;28;20575;-75
2021/05/28 12:08:00;;;;;;;1.67;1.00;;;27.10;49.90;;;;;;5032596;28;20611;-75
2021/05/28 12:10:28;;;;;;;1.77;0.80;;;27.10;49.80;;;;;;5032132;28;21215;-74
2021/05/28 12:12:55;;;;;;;1.30;0.90;;;27.20;50.00;;;;;;5014268;28;20600;-75
2021/05/28 12:15:32;;;;;;;1.90;1.03;;;27.30;50.00;;;;;;5031914;28;20723;-75
2021/05/28 12:18:01;;;;;;;2.13;0.90;;;27.30;49.40;;;;;;5014116;28;20628;-75
2021/05/28 12:20:33;;;;;;;1.40;0.80;;;27.30;49.80;;;;;;5031966;28;20569;-75
2021/05/28 12:23:08;;;;;;;2.90;1.37;;;27.40;50.20;;;;;;5031886;28;20663;-76
2021/05/28 12:25:38;;;;;;;1.87;1.57;;;27.50;50.50;;;;;;5014372;28;20643;-76
2021/05/28 12:28:20;;;;;;;2.93;0.90;;;27.70;50.50;;;;;;5031763;28;20715;-76
2021/05/28 12:30:53;;;;;;;2.07;1.00;;;27.70;49.60;;;;;;5030788;28;20976;-76
2021/05/28 12:33:23;;;;;;;1.43;0.90;;;27.80;49.40;;;;;;5031656;28;20565;-76
2021/05/28 12:35:52;;;;;;;1.70;1.00;;;27.80;49.70;;;;;;5014227;28;20561;-76
2021/05/28 12:38:20;;;;;;;1.70;1.00;;;27.90;49.30;;;;;;5031273;28;21338;-76
2021/05/28 12:40:47;;;;;;;2.80;0.97;;;27.90;49.60;;;;;;5031820;28;20584;-76
2021/05/28 12:43:22;;;;;;;1.90;1.10;;;27.90;49.10;;;;;;5013824;28;20576;-76
2021/05/28 12:45:49;;;;;;;1.80;1.00;;;27.70;48.20;;;;;;5031495;28;20565;-76
2021/05/28 12:48:17;;;;;;;2.13;1.20;;;27.50;48.80;;;;;;5031483;28;21025;-76
2021/05/28 12:50:48;;;;;;;1.93;1.07;;;27.30;48.00;;;;;;5013686;28;20568;-76
2021/05/28 12:53:16;;;;;;;1.50;1.07;;;27.00;48.00;;;;;;5031351;28;20909;-76
2021/05/28 12:55:50;;;;;;;1.67;1.17;;;26.70;47.30;;;;;;5013861;28;20585;-76